Time;durP1;ratioP1;P1;durP2;ratioP2;P2;SDS_P1;SDS_P2;PMS_P1;PMS_P2;Temp;Humidity;BMP_temperature;BMP_pressure;BME280_temperature;BME280_humidity;BME280_pressure;Samples;Min_cycle;Max_cycle;Signal;HPM_P1;HPM_P2
2023/05/23 00:02:12;;;;;;;33.70;23.30;;;;;;;18.48;100.00;100297.88;4966747;28;20221;-68
2023/05/23 00:04:39;;;;;;;33.53;22.93;;;;;;;18.45;100.00;100289.91;4992067;28;20689;-68
2023/05/23 00:07:05;;;;;;;33.63;22.87;;;;;;;18.46;100.00;100305.97;4988450;28;20207;-68
2023/05/23 00:09:31;;;;;;;33.63;23.83;;;;;;;18.44;100.00;100302.44;4987101;28;20201;-68
2023/05/23 00:11:58;;;;;;;34.63;23.87;;;;;;;18.33;100.00;100290.13;4987595;28;20303;-67
2023/05/23 00:14:25;;;;;;;32.20;23.97;;;;;;;18.24;100.00;100299.25;4988379;28;20641;-68
2023/05/23 00:16:51;;;;;;;36.23;24.50;;;;;;;18.25;100.00;100302.81;4993775;28;20197;-68
2023/05/23 00:19:18;;;;;;;35.30;23.57;;;;;;;18.21;100.00;100298.41;4988911;28;20201;-68
2023/05/23 00:21:50;;;;;;;31.77;23.10;;;;;;;18.20;100.00;100307.38;4968151;28;20731;-68
2023/05/23 00:24:17;;;;;;;35.60;23.93;;;;;;;18.29;100.00;100307.19;4988377;28;20578;-68
2023/05/23 00:26:44;;;;;;;33.93;22.47;;;;;;;18.21;100.00;100302.00;4993401;28;20197;-69
2023/05/23 00:29:15;;;;;;;35.23;24.07;;;;;;;18.24;100.00;100301.03;4987101;28;20669;-68
2023/05/23 00:31:45;;;;;;;31.53;22.10;;;;;;;18.23;100.00;100313.56;4989710;28;20451;-68
2023/05/23 00:34:13;;;;;;;38.60;25.90;;;;;;;18.34;100.00;100313.34;4988993;28;20201;-67
2023/05/23 00:36:40;;;;;;;38.40;23.73;;;;;;;18.37;100.00;100306.13;4996784;28;20225;-68
2023/05/23 00:39:07;;;;;;;36.87;25.10;;;;;;;18.37;100.00;100313.28;4991409;28;20204;-68
2023/05/23 00:41:35;;;;;;;33.33;23.33;;;;;;;18.36;100.00;100320.44;4975387;28;20252;-68
2023/05/23 00:44:02;;;;;;;33.83;23.80;;;;;;;18.28;100.00;100317.03;4983510;28;20197;-68
2023/05/23 00:46:29;;;;;;;33.90;23.67;;;;;;;18.24;100.00;100322.50;4998819;28;20251;-69
2023/05/23 00:48:56;;;;;;;37.07;24.73;;;;;;;18.15;100.00;100321.75;4993481;28;20258;-68
2023/05/23 00:51:23;;;;;;;34.53;24.07;;;;;;;18.10;100.00;100320.06;4979294;28;20259;-68
2023/05/23 00:53:50;;;;;;;40.20;25.93;;;;;;;18.19;100.00;100319.00;4993995;28;20287;-68
2023/05/23 00:56:17;;;;;;;33.20;25.20;;;;;;;18.23;100.00;100331.44;4996354;28;20200;-68
2023/05/23 00:58:44;;;;;;;38.97;26.07;;;;;;;18.29;100.00;100334.00;4991898;28;20200;-68
2023/05/23 01:01:10;;;;;;;37.40;26.47;;;;;;;18.22;100.00;100335.94;4989670;28;20271;-68
2023/05/23 01:03:37;;;;;;;34.27;25.23;;;;;;;18.19;100.00;100341.34;4988901;28;20216;-69
2023/05/23 01:06:03;;;;;;;35.00;25.67;;;;;;;18.17;100.00;100344.06;4998453;28;20200;-69
2023/05/23 01:08:30;;;;;;;32.97;24.90;;;;;;;18.26;100.00;100355.50;4990829;28;20201;-68
2023/05/23 01:11:05;;;;;;;35.40;24.33;;;;;;;18.29;100.00;100334.88;4988155;28;20723;-68
2023/05/23 01:13:46;;;;;;;36.10;23.67;;;;;;;18.30;100.00;100349.19;4986121;28;20216;-68
2023/05/23 01:16:19;;;;;;;35.23;24.43;;;;;;;18.22;100.00;100354.69;4992508;28;20287;-68
2023/05/23 01:18:56;;;;;;;34.07;24.53;;;;;;;18.16;100.00;100350.31;4990859;28;20713;-69
2023/05/23 01:21:25;;;;;;;32.53;24.17;;;;;;;18.07;100.00;100357.66;4988578;28;20212;-70
2023/05/23 01:24:19;;;;;;;34.67;24.57;;;;;;;18.14;100.00;100345.91;4990115;28;20694;-68
2023/05/23 01:27:12;;;;;;;34.13;23.27;;;;;;;18.05;100.00;100349.66;4975483;28;20189;-68
2023/05/23 01:29:46;;;;;;;32.07;22.80;;;;;;;17.98;100.00;100345.28;4968517;28;20255;-68
2023/05/23 01:32:14;;;;;;;32.20;22.50;;;;;;;17.92;100.00;100355.22;4989130;28;20232;-68
2023/05/23 01:34:42;;;;;;;28.50;21.37;;;;;;;17.84;100.00;100352.69;4994259;28;20197;-68
2023/05/23 01:37:10;;;;;;;29.43;21.00;;;;;;;17.83;100.00;100340.19;4992045;28;20204;-67
2023/05/23 01:39:37;;;;;;;30.17;21.37;;;;;;;17.80;100.00;100348.28;4988533;28;20200;-69
2023/05/23 01:42:04;;;;;;;26.73;19.93;;;;;;;17.58;100.00;100358.41;4989502;28;20220;-69
2023/05/23 01:44:33;;;;;;;28.43;19.40;;;;;;;17.48;100.00;100360.34;4996124;28;20197;-67
2023/05/23 01:47:02;;;;;;;26.03;18.53;;;;;;;17.46;100.00;100356.81;4986528;28;20288;-67
2023/05/23 01:49:30;;;;;;;25.80;17.67;;;;;;;17.28;100.00;100353.53;4996303;28;20197;-68
2023/05/23 01:51:59;;;;;;;27.40;17.57;;;;;;;17.09;100.00;100363.59;4972747;28;20329;-68
2023/05/23 01:54:28;;;;;;;24.83;17.63;;;;;;;17.01;100.00;100355.69;4991576;28;20205;-67
2023/05/23 01:56:56;;;;;;;22.97;16.93;;;;;;;17.00;100.00;100361.06;4978620;28;20700;-68
2023/05/23 01:59:23;;;;;;;24.20;16.37;;;;;;;16.90;100.00;100363.88;4987299;28;20211;-68
2023/05/23 02:01:50;;;;;;;22.50;15.27;;;;;;;16.89;100.00;100371.91;4984499;28;20217;-67
2023/05/23 02:04:16;;;;;;;21.33;15.57;;;;;;;16.76;100.00;100376.50;4979162;28;20197;-67
2023/05/23 02:06:42;;;;;;;22.10;15.07;;;;;;;16.67;100.00;100378.41;4981789;28;20280;-67
2023/05/23 02:09:09;;;;;;;21.00;14.77;;;;;;;16.59;100.00;100375.78;4991154;28;20657;-69
2023/05/23 02:11:35;;;;;;;23.80;15.43;;;;;;;16.57;100.00;100367.78;4989801;28;20189;-68
2023/05/23 02:14:02;;;;;;;20.77;14.57;;;;;;;16.41;100.00;100370.63;4991197;28;20214;-68
2023/05/23 02:16:28;;;;;;;23.47;15.17;;;;;;;16.29;100.00;100374.31;4989116;28;20203;-68
2023/05/23 02:18:55;;;;;;;25.30;15.47;;;;;;;16.25;100.00;100373.47;4986735;28;20304;-68
2023/05/23 02:21:22;;;;;;;21.23;14.10;;;;;;;16.10;100.00;100387.00;4991139;28;20217;-69
2023/05/23 02:23:49;;;;;;;20.50;14.60;;;;;;;16.08;100.00;100394.13;4990454;28;20669;-68
2023/05/23 02:26:16;;;;;;;20.90;14.53;;;;;;;15.95;100.00;100389.78;4990666;28;20601;-67
2023/05/23 02:28:43;;;;;;;23.27;14.33;;;;;;;15.87;100.00;100386.28;4992153;28;20207;-68
2023/05/23 02:31:09;;;;;;;21.37;14.07;;;;;;;15.78;100.00;100379.25;4983379;28;20279;-68
2023/05/23 02:33:36;;;;;;;19.70;13.73;;;;;;;15.80;100.00;100385.47;4991527;28;20221;-69
2023/05/23 02:36:02;;;;;;;17.97;13.37;;;;;;;15.92;100.00;100381.78;4985141;28;20216;-68
2023/05/23 02:38:29;;;;;;;18.17;12.50;;;;;;;15.76;100.00;100380.16;4990192;28;20201;-68
2023/05/23 02:40:56;;;;;;;20.23;13.57;;;;;;;15.64;100.00;100383.81;4988134;28;20589;-69
2023/05/23 02:43:23;;;;;;;19.10;12.33;;;;;;;15.70;100.00;100382.88;4984583;28;20245;-68
2023/05/23 02:45:49;;;;;;;20.10;13.13;;;;;;;15.61;100.00;100379.38;4973550;28;20201;-68
2023/05/23 02:48:16;;;;;;;20.37;12.00;;;;;;;15.47;100.00;100393.66;4986887;28;20198;-68
2023/05/23 02:50:42;;;;;;;18.67;12.37;;;;;;;15.42;100.00;100395.50;4991898;28;20212;-68
2023/05/23 02:53:09;;;;;;;19.97;11.63;;;;;;;15.27;100.00;100399.16;4986652;28;20225;-68
2023/05/23 02:55:37;;;;;;;20.63;12.83;;;;;;;15.20;100.00;100411.59;4990821;28;20267;-69
2023/05/23 02:58:04;;;;;;;18.33;11.70;;;;;;;15.25;100.00;100411.63;4989705;28;20714;-68
2023/05/23 03:00:31;;;;;;;16.60;11.27;;;;;;;15.08;100.00;100405.44;4988386;28;20685;-68
2023/05/23 03:02:57;;;;;;;17.63;11.40;;;;;;;14.95;100.00;100409.97;4988156;28;20315;-69
2023/05/23 03:05:24;;;;;;;17.00;11.47;;;;;;;15.12;100.00;100409.88;4986388;28;20224;-68
2023/05/23 03:07:53;;;;;;;15.67;11.00;;;;;;;15.18;100.00;100416.06;4993819;28;20196;-68
2023/05/23 03:10:19;;;;;;;20.50;13.03;;;;;;;15.22;100.00;100417.84;4994028;28;20756;-68
2023/05/23 03:12:46;;;;;;;18.70;13.47;;;;;;;15.38;100.00;100413.31;4992690;28;20230;-68
2023/05/23 03:15:12;;;;;;;19.77;13.43;;;;;;;15.67;100.00;100421.19;4990797;28;20209;-67
2023/05/23 03:17:39;;;;;;;20.33;13.13;;;;;;;15.53;100.00;100426.53;4989077;28;20200;-69
2023/05/23 03:20:08;;;;;;;20.10;13.83;;;;;;;15.54;100.00;100412.31;4964661;28;20205;-69
2023/05/23 03:22:35;;;;;;;19.07;13.13;;;;;;;15.46;100.00;100421.25;4969078;28;20221;-68
2023/05/23 03:25:02;;;;;;;23.30;16.40;;;;;;;15.36;100.00;100415.09;4986179;28;20205;-70
2023/05/23 03:27:28;;;;;;;21.83;15.57;;;;;;;15.24;100.00;100425.84;4991655;28;20211;-71
2023/05/23 03:29:54;;;;;;;23.77;15.80;;;;;;;15.13;100.00;100438.31;4987116;28;20262;-69
2023/05/23 03:32:21;;;;;;;28.47;16.93;;;;;;;15.40;100.00;100434.66;4992678;28;20731;-68
2023/05/23 03:34:47;;;;;;;27.03;17.53;;;;;;;15.38;100.00;100434.66;4995328;28;20199;-68
2023/05/23 03:37:14;;;;;;;27.53;18.10;;;;;;;15.40;100.00;100438.19;4988560;28;20595;-71
2023/05/23 03:39:40;;;;;;;24.10;16.77;;;;;;;15.36;100.00;100432.00;4986367;28;20196;-69
2023/05/23 03:42:06;;;;;;;26.30;18.40;;;;;;;15.36;100.00;100440.00;4997783;28;20234;-69
2023/05/23 03:44:33;;;;;;;27.57;17.97;;;;;;;15.44;100.00;100449.75;4985640;28;20290;-68
2023/05/23 03:46:59;;;;;;;24.77;17.00;;;;;;;15.36;100.00;100437.34;4970537;28;20200;-68
2023/05/23 03:49:26;;;;;;;25.70;17.17;;;;;;;15.58;100.00;100435.44;4982730;28;20216;-68
2023/05/23 03:51:52;;;;;;;22.67;16.20;;;;;;;15.66;100.00;100443.44;4990810;28;20258;-69
2023/05/23 03:54:19;;;;;;;28.23;18.13;;;;;;;15.79;100.00;100444.22;4971605;28;20598;-68
2023/05/23 03:56:45;;;;;;;28.53;18.73;;;;;;;15.87;100.00;100442.38;4981705;28;20232;-68
2023/05/23 03:59:11;;;;;;;24.40;16.43;;;;;;;15.89;100.00;100451.25;4982995;28;20225;-68
2023/05/23 04:01:38;;;;;;;26.27;16.47;;;;;;;15.85;100.00;100444.19;4968726;28;20228;-68
2023/05/23 04:04:04;;;;;;;23.27;15.57;;;;;;;15.88;100.00;100460.19;4992729;28;20204;-70
2023/05/23 04:06:32;;;;;;;23.37;15.53;;;;;;;15.88;100.00;100455.72;4995550;28;20193;-69
2023/05/23 04:08:58;;;;;;;20.63;14.37;;;;;;;15.98;100.00;100452.06;4991509;28;20485;-68
2023/05/23 04:11:25;;;;;;;21.57;15.20;;;;;;;16.06;99.59;100472.53;4993442;28;20250;-69
2023/05/23 04:13:52;;;;;;;19.87;13.53;;;;;;;16.07;98.75;100461.81;4990820;28;20208;-68
2023/05/23 04:16:22;;;;;;;20.43;13.77;;;;;;;16.07;98.34;100461.81;4990740;28;20200;-69
2023/05/23 04:18:50;;;;;;;20.17;14.13;;;;;;;16.00;98.29;100454.72;4992597;28;20251;-70
2023/05/23 04:21:17;;;;;;;18.70;13.07;;;;;;;16.02;98.79;100476.13;4989304;28;20419;-68
2023/05/23 04:23:43;;;;;;;19.97;13.47;;;;;;;16.02;97.76;100471.66;4990831;28;20274;-68
2023/05/23 04:26:10;;;;;;;16.90;12.73;;;;;;;16.12;97.02;100478.72;4993116;28;20196;-68
2023/05/23 04:28:38;;;;;;;18.27;12.43;;;;;;;16.13;96.96;100474.25;4991399;28;20225;-71
2023/05/23 04:31:05;;;;;;;18.40;12.70;;;;;;;16.12;97.04;100481.38;4986246;28;20203;-68
2023/05/23 04:33:33;;;;;;;16.77;11.80;;;;;;;16.19;97.17;100490.22;4991238;28;20243;-68
2023/05/23 04:36:00;;;;;;;18.37;12.83;;;;;;;16.16;97.76;100490.25;4988852;28;20205;-68
2023/05/23 04:38:26;;;;;;;16.97;12.17;;;;;;;16.16;97.27;100477.78;4984596;28;20284;-68
2023/05/23 04:40:53;;;;;;;15.97;11.10;;;;;;;16.20;97.94;100484.88;4988333;28;20772;-68
2023/05/23 04:43:20;;;;;;;17.83;12.00;;;;;;;16.15;97.12;100484.03;4972008;28;20224;-69
2023/05/23 04:45:48;;;;;;;17.37;11.27;;;;;;;16.19;97.59;100498.25;4992454;28;20197;-68
2023/05/23 04:48:16;;;;;;;15.83;11.63;;;;;;;16.21;97.06;100496.44;4993028;28;20201;-68
2023/05/23 04:50:42;;;;;;;16.20;10.87;;;;;;;16.24;97.09;100497.31;4990714;28;20544;-69
2023/05/23 04:53:08;;;;;;;17.57;11.10;;;;;;;16.24;97.03;100494.63;5052778;23;20241;-74
2023/05/23 04:55:35;;;;;;;15.03;10.57;;;;;;;16.23;96.22;100491.97;5051730;28;20249;-73
2023/05/23 04:58:02;;;;;;;15.00;10.23;;;;;;;16.27;95.69;100496.38;5045255;28;20713;-74
2023/05/23 05:00:29;;;;;;;16.43;10.17;;;;;;;16.36;95.88;100492.75;5044952;28;20217;-74
2023/05/23 05:02:55;;;;;;;13.23;9.50;;;;;;;16.43;94.70;100489.16;5053827;28;20249;-74
2023/05/23 05:05:22;;;;;;;14.40;9.50;;;;;;;16.56;94.91;100483.66;5068163;28;20198;-73
2023/05/23 05:07:48;;;;;;;13.87;9.10;;;;;;;16.60;92.69;100482.72;5063966;28;20282;-73
2023/05/23 05:10:17;;;;;;;11.93;8.60;;;;;;;16.78;93.24;100483.47;5046556;28;20202;-73
2023/05/23 05:12:50;;;;;;;13.27;9.50;;;;;;;16.88;91.79;100487.84;5061160;28;20306;-72
2023/05/23 05:15:18;;;;;;;12.53;7.83;;;;;;;17.00;92.40;100492.16;5056893;28;20222;-73
2023/05/23 05:17:45;;;;;;;10.90;8.30;;;;;;;16.95;89.26;100486.88;5063918;28;20209;-71
2023/05/23 05:20:15;;;;;;;14.17;8.70;;;;;;;16.89;89.66;100503.00;5067230;28;20222;-72
2023/05/23 05:22:42;;;;;;;10.57;8.50;;;;;;;16.77;89.38;100495.97;5067072;28;20765;-72
2023/05/23 05:25:09;;;;;;;9.80;8.00;;;;;;;16.73;89.59;100487.97;5064652;28;20277;-71
2023/05/23 05:27:36;;;;;;;10.00;7.60;;;;;;;16.90;89.39;100520.81;5059397;28;20202;-70
2023/05/23 05:30:07;;;;;;;13.23;8.57;;;;;;;17.00;87.51;100502.88;5062681;28;20673;-72
2023/05/23 05:32:34;;;;;;;10.90;8.13;;;;;;;17.04;88.39;100526.91;5055053;28;20545;-70
2023/05/23 05:35:02;;;;;;;10.53;8.10;;;;;;;16.86;87.96;100519.97;5066420;28;20677;-69
2023/05/23 05:37:29;;;;;;;10.47;8.40;;;;;;;16.57;89.49;100527.34;5062634;28;20206;-70
2023/05/23 05:39:55;;;;;;;13.93;8.37;;;;;;;16.67;88.99;100521.03;5066902;28;20615;-72
2023/05/23 05:42:22;;;;;;;9.80;8.57;;;;;;;16.74;88.54;100528.09;5052419;28;20222;-70
2023/05/23 05:44:49;;;;;;;10.13;7.97;;;;;;;16.82;88.44;100539.63;5062063;28;20202;-70
2023/05/23 05:47:15;;;;;;;11.03;8.90;;;;;;;16.83;88.83;100536.06;5066831;28;20242;-71
2023/05/23 05:49:41;;;;;;;12.50;8.80;;;;;;;16.81;87.40;100537.84;5064026;28;20675;-72
2023/05/23 05:52:08;;;;;;;10.77;9.00;;;;;;;16.80;88.07;100537.84;5065694;28;20297;-71
2023/05/23 05:54:35;;;;;;;11.70;8.60;;;;;;;16.83;87.68;100549.41;5043207;28;20208;-69
2023/05/23 05:57:01;;;;;;;13.17;9.27;;;;;;;16.88;87.29;100546.69;5067248;28;20716;-72
2023/05/23 05:59:27;;;;;;;13.03;9.20;;;;;;;17.01;87.80;100544.78;5057068;28;20209;-70
2023/05/23 06:01:57;;;;;;;10.53;8.43;;;;;;;17.26;87.59;100551.66;5041848;28;20280;-70
2023/05/23 06:04:24;;;;;;;10.30;8.60;;;;;;;17.32;84.76;100556.94;5048402;28;20329;-70
2023/05/23 06:06:50;;;;;;;11.07;9.13;;;;;;;17.40;85.04;100562.19;5068959;28;20281;-72
2023/05/23 06:09:17;;;;;;;11.90;9.37;;;;;;;17.38;84.75;100564.88;5058644;28;20199;-70
2023/05/23 06:11:43;;;;;;;11.27;9.47;;;;;;;17.41;85.09;100566.63;5067055;28;20186;-70
2023/05/23 06:14:09;;;;;;;12.30;9.90;;;;;;;17.34;85.33;100564.94;5071512;28;20194;-70
2023/05/23 06:16:36;;;;;;;11.83;9.67;;;;;;;17.21;86.42;100565.09;5070191;28;20299;-71
2023/05/23 06:19:03;;;;;;;12.23;9.70;;;;;;;17.14;85.46;100565.16;5066674;28;20220;-70
2023/05/23 06:21:30;;;;;;;11.93;9.27;;;;;;;17.17;86.64;100571.34;5070873;28;20598;-70
2023/05/23 06:23:56;;;;;;;12.00;8.60;;;;;;;17.21;87.00;100574.88;5053625;28;20222;-70
2023/05/23 06:26:22;;;;;;;10.27;7.93;;;;;;;17.14;85.72;100573.16;5069714;28;20285;-70
2023/05/23 06:28:49;;;;;;;10.53;8.90;;;;;;;17.01;86.86;100584.91;5070155;28;20216;-70
2023/05/23 06:31:15;;;;;;;11.67;8.40;;;;;;;16.96;87.16;100581.41;5068065;28;20197;-71
2023/05/23 06:33:42;;;;;;;9.77;8.13;;;;;;;17.01;87.34;100587.59;5061634;28;20210;-68
2023/05/23 06:36:08;;;;;;;10.73;9.33;;;;;;;17.02;86.97;100586.69;5060983;28;20201;-71
2023/05/23 06:38:35;;;;;;;11.17;8.50;;;;;;;17.13;87.44;100584.78;5062347;28;20191;-69
2023/05/23 06:41:05;;;;;;;10.60;8.33;;;;;;;17.18;87.85;100582.94;5056375;28;20428;-70
2023/05/23 06:43:32;;;;;;;9.70;7.70;;;;;;;17.18;86.69;100580.25;5057333;28;20218;-70
2023/05/23 06:45:58;;;;;;;8.27;7.10;;;;;;;17.24;86.01;100585.59;5059908;28;20220;-70
2023/05/23 06:48:25;;;;;;;8.43;7.17;;;;;;;17.15;87.56;100582.97;5059813;28;20249;-71
2023/05/23 06:50:51;;;;;;;9.63;7.43;;;;;;;16.91;87.76;100593.03;5065847;28;20666;-70
2023/05/23 06:53:18;;;;;;;8.20;6.93;;;;;;;16.88;88.64;100582.38;5067125;28;20770;-71
2023/05/23 06:55:44;;;;;;;9.03;7.20;;;;;;;16.97;89.11;100588.53;5047758;28;20200;-72
2023/05/23 06:58:11;;;;;;;8.60;7.00;;;;;;;16.99;89.41;100600.97;5062271;28;20195;-70
2023/05/23 07:00:37;;;;;;;8.10;6.70;;;;;;;16.79;88.83;100595.78;5063013;28;20206;-70
2023/05/23 07:03:05;;;;;;;8.93;7.73;;;;;;;16.60;90.07;100599.50;5066031;28;20222;-72
2023/05/23 07:05:33;;;;;;;9.60;7.50;;;;;;;16.74;90.46;100602.97;5064568;28;20289;-71
2023/05/23 07:07:59;;;;;;;9.90;7.33;;;;;;;16.94;89.02;100607.28;5061079;28;20202;-70
2023/05/23 07:10:26;;;;;;;12.87;7.83;;;;;;;17.05;89.44;100600.91;5059991;28;20286;-70
2023/05/23 07:12:52;;;;;;;10.33;6.67;;;;;;;17.12;87.83;100597.28;5063571;28;20263;-69
2023/05/23 07:15:19;;;;;;;8.27;6.33;;;;;;;17.27;87.46;100593.56;5047410;28;20201;-71
2023/05/23 07:17:45;;;;;;;9.67;6.67;;;;;;;18.21;84.27;100610.28;5060477;28;20284;-71
2023/05/23 07:20:12;;;;;;;6.97;5.60;;;;;;;18.59;80.28;100606.13;5066374;28;20590;-72
2023/05/23 07:22:38;;;;;;;7.13;6.10;;;;;;;18.36;82.83;100625.25;5068421;28;20258;-71
2023/05/23 07:25:05;;;;;;;6.03;5.27;;;;;;;17.89;84.44;100608.03;5066043;28;20212;-71
2023/05/23 07:27:32;;;;;;;6.00;5.10;;;;;;;18.58;81.83;100617.78;5066467;28;20203;-70
2023/05/23 07:29:58;;;;;;;8.40;5.60;;;;;;;19.96;74.88;100609.88;5069471;28;20465;-68
2023/05/23 07:32:24;;;;;;;5.77;5.13;;;;;;;21.04;71.22;100608.25;5067793;28;20243;-72
2023/05/23 07:34:51;;;;;;;6.60;5.30;;;;;;;20.77;69.51;100607.16;5069189;28;20194;-71
2023/05/23 07:37:17;;;;;;;6.17;4.87;;;;;;;20.03;72.14;100618.72;5066127;28;20224;-71
2023/05/23 07:39:46;;;;;;;6.60;5.27;;;;;;;19.58;75.15;100616.03;5063354;28;20571;-69
2023/05/23 07:42:13;;;;;;;6.70;5.20;;;;;;;19.28;76.13;100620.19;5059073;28;20293;-70
2023/05/23 07:44:40;;;;;;;8.23;5.27;;;;;;;19.26;75.93;100615.75;5060737;28;20621;-73
2023/05/23 07:47:06;;;;;;;6.73;5.50;;;;;;;18.92;77.00;100620.84;5055382;28;20205;-69
2023/05/23 07:49:33;;;;;;;8.00;5.73;;;;;;;18.79;78.22;100622.81;5037809;28;20190;-70
2023/05/23 07:52:00;;;;;;;6.27;5.40;;;;;;;18.89;77.36;100618.22;5058101;28;20584;-70
2023/05/23 07:54:27;;;;;;;6.20;5.33;;;;;;;19.07;77.08;100620.56;5065787;28;20206;-71
2023/05/23 07:56:53;;;;;;;7.57;4.87;;;;;;;18.79;77.79;100615.66;5064968;28;20227;-70
2023/05/23 07:59:21;;;;;;;6.77;5.13;;;;;;;19.49;75.85;100613.50;5064627;28;20194;-74
2023/05/23 08:01:49;;;;;;;6.70;5.70;;;;;;;20.35;73.18;100631.44;5066444;28;20217;-71
2023/05/23 08:04:16;;;;;;;6.23;5.00;;;;;;;21.20;69.06;100615.88;5060909;28;20927;-70
2023/05/23 08:06:46;;;;;;;7.30;4.93;;;;;;;20.64;69.35;100633.47;5060439;28;20224;-70
2023/05/23 08:09:30;;;;;;;6.27;4.90;;;;;;;19.81;72.73;100617.41;5045500;28;20203;-70
2023/05/23 08:11:56;;;;;;;7.07;5.30;;;;;;;19.47;74.55;100634.16;5059248;28;20662;-72
2023/05/23 08:14:22;;;;;;;6.67;5.60;;;;;;;20.15;72.42;100631.88;5065092;28;20200;-70
2023/05/23 08:16:57;;;;;;;6.20;5.23;;;;;;;20.19;72.36;100633.59;5059156;28;20218;-71
2023/05/23 08:19:24;;;;;;;6.27;5.30;;;;;;;20.23;71.79;100643.34;5060903;28;20195;-70
2023/05/23 08:21:52;;;;;;;5.27;4.37;;;;;;;20.09;71.47;100640.09;5064331;28;20395;-71
2023/05/23 08:24:19;;;;;;;5.50;4.80;;;;;;;19.71;73.64;100654.31;5049353;28;20190;-71
2023/05/23 08:26:46;;;;;;;8.33;4.40;;;;;;;19.50;73.87;100636.78;5065359;28;20233;-72
2023/05/23 08:29:13;;;;;;;6.23;4.40;;;;;;;19.22;75.13;100643.59;5063001;28;20201;-73
2023/05/23 08:31:40;;;;;;;5.63;4.77;;;;;;;19.13;76.19;100649.97;5045782;28;20206;-72
2023/05/23 08:34:06;;;;;;;6.37;4.90;;;;;;;19.21;75.58;100644.47;5064339;28;20230;-70
2023/05/23 08:36:35;;;;;;;6.13;4.87;;;;;;;18.96;75.69;100639.53;5056677;28;20199;-74
2023/05/23 08:39:02;;;;;;;6.20;5.10;;;;;;;19.14;75.89;100649.06;5055777;28;20198;-71
2023/05/23 08:41:29;;;;;;;5.23;4.70;;;;;;;19.07;76.05;100655.47;5062977;28;20230;-72
2023/05/23 08:43:56;;;;;;;6.10;5.03;;;;;;;18.97;76.54;100641.31;5060172;28;20218;-72
2023/05/23 08:46:23;;;;;;;5.63;4.80;;;;;;;19.11;77.30;100630.34;5058891;28;20190;-72
2023/05/23 08:48:53;;;;;;;7.03;4.97;;;;;;;19.38;75.28;100635.22;5053599;28;20190;-72
2023/05/23 08:51:21;;;;;;;6.07;5.00;;;;;;;19.84;73.96;100634.34;5058072;28;20666;-73
2023/05/23 08:53:48;;;;;;;5.73;4.80;;;;;;;19.73;73.20;100638.16;5045393;28;20232;-73
2023/05/23 08:56:18;;;;;;;5.37;4.80;;;;;;;19.46;74.08;100639.53;5056474;28;20195;-72
2023/05/23 08:58:46;;;;;;;6.93;4.63;;;;;;;19.24;75.33;100637.28;5060590;28;20573;-72
2023/05/23 09:01:14;;;;;;;6.97;5.20;;;;;;;18.81;77.06;100647.84;5062797;28;20260;-74
2023/05/23 09:03:41;;;;;;;5.53;4.90;;;;;;;18.66;77.98;100656.13;5067171;28;20218;-72
2023/05/23 09:06:11;;;;;;;6.03;4.93;;;;;;;18.47;78.14;100652.81;5045393;28;20654;-73
2023/05/23 09:08:38;;;;;;;5.83;5.00;;;;;;;18.31;79.66;100664.66;5050682;28;20429;-73
2023/05/23 09:11:05;;;;;;;10.50;5.23;;;;;;;18.26;79.26;100664.72;5058805;28;20288;-73
2023/05/23 09:13:32;;;;;;;6.70;5.20;;;;;;;18.35;80.46;100664.59;5045139;28;20210;-72
2023/05/23 09:15:59;;;;;;;7.77;5.37;;;;;;;18.43;78.17;100667.19;5061675;28;20207;-72
2023/05/23 09:18:26;;;;;;;7.97;5.43;;;;;;;18.56;77.16;100668.78;5064666;28;20198;-72
2023/05/23 09:20:52;;;;;;;6.73;5.63;;;;;;;18.68;75.97;100670.41;5062746;28;20222;-75
2023/05/23 09:23:19;;;;;;;7.37;6.03;;;;;;;18.88;75.69;100664.75;5046005;28;20222;-72
2023/05/23 09:25:46;;;;;;;7.67;6.13;;;;;;;19.10;75.06;100668.84;5059211;28;20201;-72
2023/05/23 09:28:13;;;;;;;6.77;5.37;;;;;;;19.18;73.83;100666.00;5042949;28;20587;-73
2023/05/23 09:30:39;;;;;;;8.80;6.20;;;;;;;19.40;73.64;100662.03;5060926;28;20688;-72
2023/05/23 09:33:06;;;;;;;7.93;5.97;;;;;;;19.57;73.60;100672.50;5060170;28;20225;-71
2023/05/23 09:35:32;;;;;;;8.30;5.60;;;;;;;19.20;75.22;100674.94;5061682;28;20226;-74
2023/05/23 09:37:59;;;;;;;7.43;6.43;;;;;;;19.26;75.78;100669.47;5043296;28;20229;-76
2023/05/23 09:40:31;;;;;;;8.87;6.83;;;;;;;19.19;74.57;100671.34;5058484;28;20385;-72
2023/05/23 09:43:04;;;;;;;10.20;6.60;;;;;;;19.24;73.77;100669.50;5058948;28;20221;-74
2023/05/23 09:45:32;;;;;;;9.70;7.43;;;;;;;19.77;72.30;100661.38;5056823;28;20194;-71
2023/05/23 09:47:58;;;;;;;12.37;6.47;;;;;;;20.27;70.45;100668.38;5058874;28;20202;-71
2023/05/23 09:50:30;;;;;;;10.53;7.37;;;;;;;20.08;70.83;100665.22;5059567;28;20276;-71
2023/05/23 09:52:57;;;;;;;9.60;7.33;;;;;;;20.33;70.52;100658.38;5068488;28;20230;-70
2023/05/23 09:55:23;;;;;;;8.67;7.13;;;;;;;20.95;69.16;100655.16;5066292;28;20197;-72
2023/05/23 09:57:55;;;;;;;8.90;7.00;;;;;;;21.16;67.47;100668.06;5068567;28;20280;-71
2023/05/23 10:00:22;;;;;;;8.60;7.00;;;;;;;21.61;65.40;100662.41;5069127;28;20217;-74
2023/05/23 10:03:07;;;;;;;9.27;7.23;;;;;;;21.11;67.34;100663.72;5070989;28;20254;-72
2023/05/23 10:05:39;;;;;;;11.48;6.85;;;;;;;21.58;65.62;100651.72;5055718;28;20226;-72
2023/05/23 10:08:13;;;;;;;9.10;6.55;;;;;;;21.01;66.03;100664.91;5064672;28;20220;-73
2023/05/23 10:11:12;;;;;;;9.55;6.72;;;;;;;21.17;67.27;100675.22;5063621;28;20395;-75
2023/05/23 10:13:48;;;;;;;9.87;6.87;;;;;;;20.51;69.38;100684.03;5058670;28;20233;-72
2023/05/23 10:16:22;;;;;;;9.88;7.15;;;;;;;19.89;71.48;100683.50;5059419;28;20201;-73
2023/05/23 10:19:27;;;;;;;13.60;7.00;;;;;;;19.29;74.48;100681.03;5058305;28;20194;-74
2023/05/23 10:22:02;;;;;;;12.87;7.13;;;;;;;19.50;73.76;100673.50;5049804;28;20273;-72
2023/05/23 10:24:29;;;;;;;8.97;7.07;;;;;;;19.62;73.24;100687.66;5064499;28;20190;-73
2023/05/23 10:26:57;;;;;;;8.47;7.17;;;;;;;20.29;72.34;100696.13;5066848;28;20202;-74
2023/05/23 10:29:24;;;;;;;9.47;7.10;;;;;;;20.88;70.41;100678.66;5046646;28;20635;-71
2023/05/23 10:31:52;;;;;;;8.52;6.35;;;;;;;20.84;68.11;100685.06;5066351;28;20234;-74
2023/05/23 10:34:43;;;;;;;9.93;7.05;;;;;;;20.84;68.77;100690.44;5051292;28;20236;-74
2023/05/23 10:37:19;;;;;;;11.02;6.85;;;;;;;20.99;67.00;100694.56;5070080;28;20198;-70
2023/05/23 10:40:21;;;;;;;11.70;7.13;;;;;;;20.61;69.55;100690.97;5062330;28;20604;-71
2023/05/23 10:42:55;;;;;;;9.85;7.13;;;;;;;20.45;69.28;100694.94;5056231;28;20217;-71
2023/05/23 10:45:25;;;;;;;10.30;6.70;;;;;;;20.34;69.89;100691.53;5061040;28;20205;-72
2023/05/23 10:47:52;;;;;;;9.83;7.30;;;;;;;19.68;72.34;100695.59;5062765;28;20201;-72
2023/05/23 10:50:33;;;;;;;10.17;7.13;;;;;;;19.42;73.46;100689.75;5057823;28;20234;-71
2023/05/23 10:53:01;;;;;;;8.87;6.87;;;;;;;19.08;74.19;100698.38;5089469;23;20597;-71
2023/05/23 10:55:32;;;;;;;8.87;6.47;;;;;;;18.91;74.93;100708.53;5051199;28;20199;-71
2023/05/23 10:58:14;;;;;;;8.10;6.30;;;;;;;19.13;75.26;100714.41;5050428;28;20205;-70
2023/05/23 11:01:06;;;;;;;9.70;7.23;;;;;;;19.29;74.69;100702.53;5053589;28;20226;-71
2023/05/23 11:03:45;;;;;;;11.90;7.67;;;;;;;19.75;73.58;100715.16;5023085;28;20714;-70
2023/05/23 11:06:31;;;;;;;9.37;7.37;;;;;;;20.18;71.91;100707.13;5057040;28;20266;-71
2023/05/23 11:09:05;;;;;;;10.00;6.73;;;;;;;20.38;70.62;100716.56;5047036;28;20190;-70
2023/05/23 11:12:03;;;;;;;10.10;6.83;;;;;;;20.35;69.21;100712.13;5044538;28;20204;-71
2023/05/23 11:14:31;;;;;;;10.93;6.90;;;;;;;20.54;69.56;100709.97;5028258;28;20309;-72
2023/05/23 11:16:59;;;;;;;8.63;6.97;;;;;;;20.80;69.64;100703.97;5044893;28;20203;-70
2023/05/23 11:19:28;;;;;;;9.53;7.03;;;;;;;20.34;71.03;100702.28;5050820;28;20205;-72
2023/05/23 11:22:00;;;;;;;8.03;6.43;;;;;;;19.44;74.13;100719.28;5039035;28;20192;-72